sensor_id;sensor_type;location;lat;lon;timestamp;P1;durP1;ratioP1;P2;durP2;ratioP2
40635;SDS011;26642;55.766;37.828;2022-08-27T00:00:10;34.22;;;22.25;;
40635;SDS011;26642;55.766;37.828;2022-08-27T00:02:40;32.63;;;21.15;;
40635;SDS011;26642;55.766;37.828;2022-08-27T00:05:07;30.55;;;21.30;;
40635;SDS011;26642;55.766;37.828;2022-08-27T00:07:36;35.17;;;20.58;;
40635;SDS011;26642;55.766;37.828;2022-08-27T00:10:02;34.08;;;21.65;;
40635;SDS011;26642;55.766;37.828;2022-08-27T00:12:29;34.55;;;22.33;;
40635;SDS011;26642;55.766;37.828;2022-08-27T00:14:55;34.40;;;21.92;;
40635;SDS011;26642;55.766;37.828;2022-08-27T00:17:22;39.78;;;22.98;;
40635;SDS011;26642;55.766;37.828;2022-08-27T00:19:48;45.45;;;24.27;;
40635;SDS011;26642;55.766;37.828;2022-08-27T00:22:14;35.72;;;23.50;;
40635;SDS011;26642;55.766;37.828;2022-08-27T00:24:40;41.03;;;24.55;;
40635;SDS011;26642;55.766;37.828;2022-08-27T00:27:06;31.58;;;22.60;;
40635;SDS011;26642;55.766;37.828;2022-08-27T00:29:32;33.45;;;22.30;;
40635;SDS011;26642;55.766;37.828;2022-08-27T00:31:58;39.70;;;24.52;;
40635;SDS011;26642;55.766;37.828;2022-08-27T00:34:24;44.15;;;24.67;;
40635;SDS011;26642;55.766;37.828;2022-08-27T00:36:50;34.45;;;23.77;;
40635;SDS011;26642;55.766;37.828;2022-08-27T00:39:17;37.50;;;24.65;;
40635;SDS011;26642;55.766;37.828;2022-08-27T00:41:45;34.15;;;23.25;;
40635;SDS011;26642;55.766;37.828;2022-08-27T00:44:11;38.50;;;24.00;;
40635;SDS011;26642;55.766;37.828;2022-08-27T00:51:45;33.40;;;20.55;;
40635;SDS011;26642;55.766;37.828;2022-08-27T00:54:16;35.35;;;22.27;;
40635;SDS011;26642;55.766;37.828;2022-08-27T00:56:42;44.05;;;28.58;;
40635;SDS011;26642;55.766;37.828;2022-08-27T00:59:10;42.33;;;26.23;;
40635;SDS011;26642;55.766;37.828;2022-08-27T01:01:39;35.03;;;22.38;;
40635;SDS011;26642;55.766;37.828;2022-08-27T01:04:25;45.92;;;27.52;;
40635;SDS011;26642;55.766;37.828;2022-08-27T01:06:52;45.65;;;32.55;;
40635;SDS011;26642;55.766;37.828;2022-08-27T01:09:18;53.70;;;35.85;;
40635;SDS011;26642;55.766;37.828;2022-08-27T01:11:45;56.85;;;34.97;;
40635;SDS011;26642;55.766;37.828;2022-08-27T01:14:12;52.63;;;33.58;;
40635;SDS011;26642;55.766;37.828;2022-08-27T01:16:40;49.25;;;33.60;;
40635;SDS011;26642;55.766;37.828;2022-08-27T01:21:54;49.67;;;31.00;;
40635;SDS011;26642;55.766;37.828;2022-08-27T01:24:33;55.15;;;33.08;;
40635;SDS011;26642;55.766;37.828;2022-08-27T01:27:00;55.60;;;34.00;;
40635;SDS011;26642;55.766;37.828;2022-08-27T01:29:28;51.30;;;34.05;;
40635;SDS011;26642;55.766;37.828;2022-08-27T01:32:03;62.63;;;37.00;;
40635;SDS011;26642;55.766;37.828;2022-08-27T01:34:33;54.40;;;31.75;;
40635;SDS011;26642;55.766;37.828;2022-08-27T01:37:00;66.80;;;41.95;;
40635;SDS011;26642;55.766;37.828;2022-08-27T01:39:26;61.13;;;41.00;;
40635;SDS011;26642;55.766;37.828;2022-08-27T01:41:52;72.10;;;46.08;;
40635;SDS011;26642;55.766;37.828;2022-08-27T01:44:18;73.50;;;46.95;;
40635;SDS011;26642;55.766;37.828;2022-08-27T01:46:44;53.75;;;35.63;;
40635;SDS011;26642;55.766;37.828;2022-08-27T01:49:10;41.28;;;28.92;;
40635;SDS011;26642;55.766;37.828;2022-08-27T01:51:36;62.30;;;43.30;;
40635;SDS011;26642;55.766;37.828;2022-08-27T01:54:02;82.38;;;53.28;;
40635;SDS011;26642;55.766;37.828;2022-08-27T01:56:28;75.63;;;50.95;;
40635;SDS011;26642;55.766;37.828;2022-08-27T01:58:54;90.65;;;60.72;;
40635;SDS011;26642;55.766;37.828;2022-08-27T02:01:20;106.20;;;69.50;;
40635;SDS011;26642;55.766;37.828;2022-08-27T02:03:48;97.43;;;61.83;;
40635;SDS011;26642;55.766;37.828;2022-08-27T02:06:14;100.28;;;68.13;;
40635;SDS011;26642;55.766;37.828;2022-08-27T02:08:40;103.55;;;66.25;;
40635;SDS011;26642;55.766;37.828;2022-08-27T02:11:06;106.57;;;68.13;;
40635;SDS011;26642;55.766;37.828;2022-08-27T02:13:32;112.05;;;71.50;;
40635;SDS011;26642;55.766;37.828;2022-08-27T02:15:58;105.90;;;70.15;;
40635;SDS011;26642;55.766;37.828;2022-08-27T02:18:24;105.07;;;72.13;;
40635;SDS011;26642;55.766;37.828;2022-08-27T02:20:50;100.40;;;69.30;;
40635;SDS011;26642;55.766;37.828;2022-08-27T02:23:16;102.95;;;71.10;;
40635;SDS011;26642;55.766;37.828;2022-08-27T02:25:43;109.68;;;72.15;;
40635;SDS011;26642;55.766;37.828;2022-08-27T02:28:11;94.55;;;64.63;;
40635;SDS011;26642;55.766;37.828;2022-08-27T02:30:38;101.95;;;63.17;;
40635;SDS011;26642;55.766;37.828;2022-08-27T02:33:04;103.15;;;67.72;;
40635;SDS011;26642;55.766;37.828;2022-08-27T02:35:31;95.93;;;63.40;;
40635;SDS011;26642;55.766;37.828;2022-08-27T02:37:59;100.38;;;67.03;;
40635;SDS011;26642;55.766;37.828;2022-08-27T02:40:26;91.35;;;64.50;;
40635;SDS011;26642;55.766;37.828;2022-08-27T02:42:52;97.47;;;65.50;;
40635;SDS011;26642;55.766;37.828;2022-08-27T02:45:18;108.60;;;73.35;;
40635;SDS011;26642;55.766;37.828;2022-08-27T02:47:45;111.30;;;75.45;;
40635;SDS011;26642;55.766;37.828;2022-08-27T02:50:12;124.97;;;86.05;;
40635;SDS011;26642;55.766;37.828;2022-08-27T02:52:38;106.43;;;74.43;;
40635;SDS011;26642;55.766;37.828;2022-08-27T02:55:05;103.22;;;68.10;;
40635;SDS011;26642;55.766;37.828;2022-08-27T02:57:32;112.10;;;68.78;;
40635;SDS011;26642;55.766;37.828;2022-08-27T02:59:59;112.22;;;74.93;;
40635;SDS011;26642;55.766;37.828;2022-08-27T03:02:25;112.00;;;76.90;;
40635;SDS011;26642;55.766;37.828;2022-08-27T03:04:51;119.80;;;83.45;;
40635;SDS011;26642;55.766;37.828;2022-08-27T03:07:17;121.93;;;84.82;;
40635;SDS011;26642;55.766;37.828;2022-08-27T03:09:43;124.88;;;86.40;;
40635;SDS011;26642;55.766;37.828;2022-08-27T03:12:09;100.82;;;68.78;;
40635;SDS011;26642;55.766;37.828;2022-08-27T03:14:36;115.65;;;82.15;;
40635;SDS011;26642;55.766;37.828;2022-08-27T03:17:02;126.13;;;85.82;;
40635;SDS011;26642;55.766;37.828;2022-08-27T03:19:46;126.60;;;84.38;;
40635;SDS011;26642;55.766;37.828;2022-08-27T03:22:13;102.55;;;73.65;;
40635;SDS011;26642;55.766;37.828;2022-08-27T03:24:39;106.13;;;73.82;;
40635;SDS011;26642;55.766;37.828;2022-08-27T03:27:05;123.55;;;86.78;;
40635;SDS011;26642;55.766;37.828;2022-08-27T03:29:32;112.57;;;82.35;;
40635;SDS011;26642;55.766;37.828;2022-08-27T03:31:59;124.68;;;82.20;;
40635;SDS011;26642;55.766;37.828;2022-08-27T03:34:26;110.65;;;79.78;;
40635;SDS011;26642;55.766;37.828;2022-08-27T03:36:52;121.95;;;82.90;;
40635;SDS011;26642;55.766;37.828;2022-08-27T03:39:18;118.97;;;86.13;;
40635;SDS011;26642;55.766;37.828;2022-08-27T03:41:44;135.07;;;91.22;;
40635;SDS011;26642;55.766;37.828;2022-08-27T03:44:10;138.88;;;94.20;;
40635;SDS011;26642;55.766;37.828;2022-08-27T03:46:36;142.80;;;96.95;;
40635;SDS011;26642;55.766;37.828;2022-08-27T03:49:02;142.75;;;96.72;;
40635;SDS011;26642;55.766;37.828;2022-08-27T03:51:29;147.15;;;97.70;;
40635;SDS011;26642;55.766;37.828;2022-08-27T03:53:55;141.23;;;96.22;;
40635;SDS011;26642;55.766;37.828;2022-08-27T03:56:21;147.23;;;98.40;;
40635;SDS011;26642;55.766;37.828;2022-08-27T03:58:47;153.40;;;102.03;;
40635;SDS011;26642;55.766;37.828;2022-08-27T04:01:13;152.13;;;98.90;;
40635;SDS011;26642;55.766;37.828;2022-08-27T04:03:41;151.45;;;101.35;;
40635;SDS011;26642;55.766;37.828;2022-08-27T04:06:07;151.65;;;98.60;;
40635;SDS011;26642;55.766;37.828;2022-08-27T04:08:33;140.85;;;100.07;;
40635;SDS011;26642;55.766;37.828;2022-08-27T04:10:59;144.85;;;100.53;;
40635;SDS011;26642;55.766;37.828;2022-08-27T04:13:29;151.20;;;102.70;;
40635;SDS011;26642;55.766;37.828;2022-08-27T04:15:55;155.07;;;104.03;;
40635;SDS011;26642;55.766;37.828;2022-08-27T04:18:21;150.40;;;99.53;;
40635;SDS011;26642;55.766;37.828;2022-08-27T04:20:47;147.70;;;96.80;;
40635;SDS011;26642;55.766;37.828;2022-08-27T04:23:15;145.77;;;100.57;;
40635;SDS011;26642;55.766;37.828;2022-08-27T04:25:42;151.13;;;101.43;;
40635;SDS011;26642;55.766;37.828;2022-08-27T04:28:09;137.70;;;92.32;;
40635;SDS011;26642;55.766;37.828;2022-08-27T04:30:43;156.38;;;105.05;;
40635;SDS011;26642;55.766;37.828;2022-08-27T04:33:10;154.77;;;108.65;;
40635;SDS011;26642;55.766;37.828;2022-08-27T04:35:38;152.80;;;105.22;;
40635;SDS011;26642;55.766;37.828;2022-08-27T04:38:04;153.13;;;102.70;;
40635;SDS011;26642;55.766;37.828;2022-08-27T04:40:30;136.10;;;96.15;;
40635;SDS011;26642;55.766;37.828;2022-08-27T04:43:15;139.77;;;100.85;;
40635;SDS011;26642;55.766;37.828;2022-08-27T04:45:42;160.77;;;112.53;;
40635;SDS011;26642;55.766;37.828;2022-08-27T04:48:09;157.43;;;113.45;;
40635;SDS011;26642;55.766;37.828;2022-08-27T04:50:43;172.07;;;122.32;;
40635;SDS011;26642;55.766;37.828;2022-08-27T04:53:11;176.05;;;123.85;;
40635;SDS011;26642;55.766;37.828;2022-08-27T04:55:52;165.48;;;119.38;;
40635;SDS011;26642;55.766;37.828;2022-08-27T04:58:20;185.05;;;129.57;;
40635;SDS011;26642;55.766;37.828;2022-08-27T05:00:48;191.20;;;134.63;;
40635;SDS011;26642;55.766;37.828;2022-08-27T05:03:17;186.27;;;130.07;;
40635;SDS011;26642;55.766;37.828;2022-08-27T05:05:47;184.77;;;130.93;;
40635;SDS011;26642;55.766;37.828;2022-08-27T05:08:14;187.93;;;132.20;;
40635;SDS011;26642;55.766;37.828;2022-08-27T05:10:50;194.63;;;135.60;;
40635;SDS011;26642;55.766;37.828;2022-08-27T05:13:17;198.73;;;136.15;;
40635;SDS011;26642;55.766;37.828;2022-08-27T05:15:44;188.63;;;135.85;;
40635;SDS011;26642;55.766;37.828;2022-08-27T05:18:11;196.70;;;138.55;;
40635;SDS011;26642;55.766;37.828;2022-08-27T05:20:45;196.50;;;138.45;;
40635;SDS011;26642;55.766;37.828;2022-08-27T05:23:17;203.43;;;143.02;;
40635;SDS011;26642;55.766;37.828;2022-08-27T05:25:45;199.38;;;144.23;;
40635;SDS011;26642;55.766;37.828;2022-08-27T05:28:13;195.02;;;144.77;;
40635;SDS011;26642;55.766;37.828;2022-08-27T05:30:41;203.05;;;146.68;;
40635;SDS011;26642;55.766;37.828;2022-08-27T05:33:09;217.77;;;151.73;;
40635;SDS011;26642;55.766;37.828;2022-08-27T05:36:13;214.05;;;148.77;;
40635;SDS011;26642;55.766;37.828;2022-08-27T05:38:29;209.23;;;149.90;;
40635;SDS011;26642;55.766;37.828;2022-08-27T05:41:29;211.70;;;150.55;;
40635;SDS011;26642;55.766;37.828;2022-08-27T05:43:56;206.82;;;149.65;;
40635;SDS011;26642;55.766;37.828;2022-08-27T05:46:23;195.07;;;146.40;;
40635;SDS011;26642;55.766;37.828;2022-08-27T05:48:51;203.52;;;150.65;;
40635;SDS011;26642;55.766;37.828;2022-08-27T05:51:20;206.48;;;150.57;;
40635;SDS011;26642;55.766;37.828;2022-08-27T05:53:48;207.65;;;150.45;;
40635;SDS011;26642;55.766;37.828;2022-08-27T05:56:18;205.30;;;144.48;;
40635;SDS011;26642;55.766;37.828;2022-08-27T05:58:46;204.43;;;145.15;;
40635;SDS011;26642;55.766;37.828;2022-08-27T06:01:32;197.52;;;144.65;;
40635;SDS011;26642;55.766;37.828;2022-08-27T06:04:01;195.38;;;145.07;;
40635;SDS011;26642;55.766;37.828;2022-08-27T06:06:28;177.68;;;137.63;;
40635;SDS011;26642;55.766;37.828;2022-08-27T06:08:54;168.63;;;126.45;;
40635;SDS011;26642;55.766;37.828;2022-08-27T06:11:21;165.52;;;125.43;;
40635;SDS011;26642;55.766;37.828;2022-08-27T06:13:47;178.27;;;128.65;;
40635;SDS011;26642;55.766;37.828;2022-08-27T06:16:15;163.95;;;122.80;;
40635;SDS011;26642;55.766;37.828;2022-08-27T06:18:43;155.43;;;118.85;;
40635;SDS011;26642;55.766;37.828;2022-08-27T06:21:11;161.77;;;122.43;;
40635;SDS011;26642;55.766;37.828;2022-08-27T06:23:38;150.15;;;117.95;;
40635;SDS011;26642;55.766;37.828;2022-08-27T06:26:05;170.00;;;126.18;;
40635;SDS011;26642;55.766;37.828;2022-08-27T06:28:32;144.35;;;115.32;;
40635;SDS011;26642;55.766;37.828;2022-08-27T06:31:03;147.23;;;111.95;;
40635;SDS011;26642;55.766;37.828;2022-08-27T06:36:01;132.88;;;98.50;;
40635;SDS011;26642;55.766;37.828;2022-08-27T06:38:30;134.85;;;99.95;;
40635;SDS011;26642;55.766;37.828;2022-08-27T06:40:56;128.07;;;97.53;;
40635;SDS011;26642;55.766;37.828;2022-08-27T06:43:23;130.88;;;95.45;;
40635;SDS011;26642;55.766;37.828;2022-08-27T06:45:50;124.13;;;90.90;;
40635;SDS011;26642;55.766;37.828;2022-08-27T06:48:17;127.55;;;95.15;;
40635;SDS011;26642;55.766;37.828;2022-08-27T06:50:44;120.60;;;90.43;;
40635;SDS011;26642;55.766;37.828;2022-08-27T06:53:11;131.52;;;97.80;;
40635;SDS011;26642;55.766;37.828;2022-08-27T06:55:40;124.60;;;97.95;;
40635;SDS011;26642;55.766;37.828;2022-08-27T06:58:08;128.93;;;97.60;;
40635;SDS011;26642;55.766;37.828;2022-08-27T07:00:34;135.05;;;101.07;;
40635;SDS011;26642;55.766;37.828;2022-08-27T07:03:00;129.13;;;101.85;;
40635;SDS011;26642;55.766;37.828;2022-08-27T07:05:29;142.40;;;107.82;;
40635;SDS011;26642;55.766;37.828;2022-08-27T07:07:56;140.77;;;105.85;;
40635;SDS011;26642;55.766;37.828;2022-08-27T07:10:22;143.80;;;105.57;;
40635;SDS011;26642;55.766;37.828;2022-08-27T07:12:48;146.25;;;110.13;;
40635;SDS011;26642;55.766;37.828;2022-08-27T07:15:15;137.85;;;101.47;;
40635;SDS011;26642;55.766;37.828;2022-08-27T07:17:41;131.63;;;101.68;;
40635;SDS011;26642;55.766;37.828;2022-08-27T07:20:12;123.97;;;94.10;;
40635;SDS011;26642;55.766;37.828;2022-08-27T07:22:40;120.97;;;92.10;;
40635;SDS011;26642;55.766;37.828;2022-08-27T07:25:07;116.38;;;89.13;;
40635;SDS011;26642;55.766;37.828;2022-08-27T07:27:36;108.38;;;84.03;;
40635;SDS011;26642;55.766;37.828;2022-08-27T07:30:04;108.18;;;81.88;;
40635;SDS011;26642;55.766;37.828;2022-08-27T07:32:32;111.55;;;83.35;;
40635;SDS011;26642;55.766;37.828;2022-08-27T07:34:58;104.00;;;81.57;;
40635;SDS011;26642;55.766;37.828;2022-08-27T07:37:24;105.65;;;80.82;;
40635;SDS011;26642;55.766;37.828;2022-08-27T07:39:50;102.90;;;80.22;;
40635;SDS011;26642;55.766;37.828;2022-08-27T07:42:16;105.05;;;78.18;;
40635;SDS011;26642;55.766;37.828;2022-08-27T07:45:00;100.70;;;78.30;;
40635;SDS011;26642;55.766;37.828;2022-08-27T07:47:27;105.10;;;76.20;;
40635;SDS011;26642;55.766;37.828;2022-08-27T07:49:53;95.55;;;74.68;;
40635;SDS011;26642;55.766;37.828;2022-08-27T07:52:19;98.93;;;74.18;;
40635;SDS011;26642;55.766;37.828;2022-08-27T07:54:45;90.53;;;74.25;;
40635;SDS011;26642;55.766;37.828;2022-08-27T07:57:11;101.80;;;74.93;;
40635;SDS011;26642;55.766;37.828;2022-08-27T07:59:37;96.32;;;72.43;;
40635;SDS011;26642;55.766;37.828;2022-08-27T08:02:03;94.07;;;70.80;;
40635;SDS011;26642;55.766;37.828;2022-08-27T08:04:29;86.75;;;66.28;;
40635;SDS011;26642;55.766;37.828;2022-08-27T08:06:55;79.28;;;61.17;;
40635;SDS011;26642;55.766;37.828;2022-08-27T08:09:21;76.15;;;57.15;;
40635;SDS011;26642;55.766;37.828;2022-08-27T08:11:50;74.63;;;59.45;;
40635;SDS011;26642;55.766;37.828;2022-08-27T08:14:17;66.88;;;53.95;;
40635;SDS011;26642;55.766;37.828;2022-08-27T08:16:43;66.22;;;52.40;;
40635;SDS011;26642;55.766;37.828;2022-08-27T08:19:09;67.70;;;55.95;;
40635;SDS011;26642;55.766;37.828;2022-08-27T08:21:35;74.40;;;55.15;;
40635;SDS011;26642;55.766;37.828;2022-08-27T08:24:02;72.57;;;54.22;;
40635;SDS011;26642;55.766;37.828;2022-08-27T08:26:29;68.18;;;54.72;;
40635;SDS011;26642;55.766;37.828;2022-08-27T08:28:55;67.72;;;55.03;;
40635;SDS011;26642;55.766;37.828;2022-08-27T08:31:21;69.70;;;55.78;;
40635;SDS011;26642;55.766;37.828;2022-08-27T08:33:51;68.75;;;53.60;;
40635;SDS011;26642;55.766;37.828;2022-08-27T08:36:17;64.72;;;51.55;;
40635;SDS011;26642;55.766;37.828;2022-08-27T08:38:44;66.15;;;52.05;;
40635;SDS011;26642;55.766;37.828;2022-08-27T08:43:53;63.42;;;50.45;;
40635;SDS011;26642;55.766;37.828;2022-08-27T08:46:24;62.45;;;49.25;;
40635;SDS011;26642;55.766;37.828;2022-08-27T08:48:58;63.08;;;47.88;;
40635;SDS011;26642;55.766;37.828;2022-08-27T08:51:31;62.92;;;47.13;;
40635;SDS011;26642;55.766;37.828;2022-08-27T08:54:05;65.03;;;49.53;;
40635;SDS011;26642;55.766;37.828;2022-08-27T08:56:48;62.58;;;49.38;;
40635;SDS011;26642;55.766;37.828;2022-08-27T09:01:59;59.03;;;48.28;;
40635;SDS011;26642;55.766;37.828;2022-08-27T09:04:25;61.75;;;47.60;;
40635;SDS011;26642;55.766;37.828;2022-08-27T09:07:00;54.88;;;43.33;;
40635;SDS011;26642;55.766;37.828;2022-08-27T09:12:09;60.60;;;42.45;;
40635;SDS011;26642;55.766;37.828;2022-08-27T09:17:17;53.75;;;43.97;;
40635;SDS011;26642;55.766;37.828;2022-08-27T09:19:43;55.80;;;42.92;;
40635;SDS011;26642;55.766;37.828;2022-08-27T09:22:14;54.95;;;44.25;;
40635;SDS011;26642;55.766;37.828;2022-08-27T09:25:17;50.35;;;42.03;;
40635;SDS011;26642;55.766;37.828;2022-08-27T09:27:41;46.80;;;36.55;;
40635;SDS011;26642;55.766;37.828;2022-08-27T09:30:09;51.08;;;35.97;;
40635;SDS011;26642;55.766;37.828;2022-08-27T09:32:37;42.80;;;35.33;;
40635;SDS011;26642;55.766;37.828;2022-08-27T09:35:05;44.97;;;37.33;;
40635;SDS011;26642;55.766;37.828;2022-08-27T09:37:43;41.78;;;33.28;;
40635;SDS011;26642;55.766;37.828;2022-08-27T09:42:57;43.47;;;32.17;;
40635;SDS011;26642;55.766;37.828;2022-08-27T09:45:47;40.88;;;32.08;;
40635;SDS011;26642;55.766;37.828;2022-08-27T09:48:19;41.45;;;34.40;;
40635;SDS011;26642;55.766;37.828;2022-08-27T09:50:50;42.10;;;32.10;;
40635;SDS011;26642;55.766;37.828;2022-08-27T09:56:09;35.15;;;29.88;;
40635;SDS011;26642;55.766;37.828;2022-08-27T09:58:52;38.88;;;29.05;;
40635;SDS011;26642;55.766;37.828;2022-08-27T10:01:29;35.53;;;29.23;;
40635;SDS011;26642;55.766;37.828;2022-08-27T10:04:13;36.35;;;30.10;;
40635;SDS011;26642;55.766;37.828;2022-08-27T10:06:45;36.15;;;28.60;;
40635;SDS011;26642;55.766;37.828;2022-08-27T10:09:16;40.08;;;29.50;;
40635;SDS011;26642;55.766;37.828;2022-08-27T10:12:45;36.63;;;28.42;;
40635;SDS011;26642;55.766;37.828;2022-08-27T10:14:57;41.28;;;36.78;;
40635;SDS011;26642;55.766;37.828;2022-08-27T10:23:44;41.28;;;35.10;;
40635;SDS011;26642;55.766;37.828;2022-08-27T10:26:35;33.55;;;29.85;;
40635;SDS011;26642;55.766;37.828;2022-08-27T10:32:23;33.58;;;26.92;;
40635;SDS011;26642;55.766;37.828;2022-08-27T10:37:34;23.73;;;18.05;;
40635;SDS011;26642;55.766;37.828;2022-08-27T10:40:23;20.00;;;17.77;;
40635;SDS011;26642;55.766;37.828;2022-08-27T10:45:50;21.90;;;15.75;;
40635;SDS011;26642;55.766;37.828;2022-08-27T10:48:38;23.00;;;17.92;;
40635;SDS011;26642;55.766;37.828;2022-08-27T10:51:12;21.23;;;16.70;;
40635;SDS011;26642;55.766;37.828;2022-08-27T10:54:36;23.83;;;17.88;;
40635;SDS011;26642;55.766;37.828;2022-08-27T11:05:17;19.83;;;16.15;;
40635;SDS011;26642;55.766;37.828;2022-08-27T11:10:49;21.48;;;15.60;;
40635;SDS011;26642;55.766;37.828;2022-08-27T11:13:38;22.13;;;16.35;;
40635;SDS011;26642;55.766;37.828;2022-08-27T11:18:48;23.50;;;16.33;;
40635;SDS011;26642;55.766;37.828;2022-08-27T11:21:26;20.45;;;15.25;;
40635;SDS011;26642;55.766;37.828;2022-08-27T11:26:53;20.55;;;15.77;;
40635;SDS011;26642;55.766;37.828;2022-08-27T11:29:31;19.65;;;15.85;;
40635;SDS011;26642;55.766;37.828;2022-08-27T11:37:35;22.35;;;16.35;;
40635;SDS011;26642;55.766;37.828;2022-08-27T11:43:21;20.35;;;16.25;;
40635;SDS011;26642;55.766;37.828;2022-08-27T11:45:53;22.30;;;16.63;;
40635;SDS011;26642;55.766;37.828;2022-08-27T11:48:23;19.35;;;16.48;;
40635;SDS011;26642;55.766;37.828;2022-08-27T11:51:01;21.60;;;16.00;;
40635;SDS011;26642;55.766;37.828;2022-08-27T11:53:29;25.17;;;16.77;;
40635;SDS011;26642;55.766;37.828;2022-08-27T11:56:14;22.55;;;16.60;;
40635;SDS011;26642;55.766;37.828;2022-08-27T11:58:46;21.65;;;16.23;;
40635;SDS011;26642;55.766;37.828;2022-08-27T12:01:16;18.75;;;16.52;;
40635;SDS011;26642;55.766;37.828;2022-08-27T12:04:02;19.10;;;16.95;;
40635;SDS011;26642;55.766;37.828;2022-08-27T12:06:42;22.10;;;16.88;;
40635;SDS011;26642;55.766;37.828;2022-08-27T12:09:20;22.25;;;16.80;;
40635;SDS011;26642;55.766;37.828;2022-08-27T12:19:29;33.85;;;17.85;;
40635;SDS011;26642;55.766;37.828;2022-08-27T12:24:55;23.45;;;16.70;;
40635;SDS011;26642;55.766;37.828;2022-08-27T12:30:05;21.88;;;17.00;;
40635;SDS011;26642;55.766;37.828;2022-08-27T12:32:45;20.60;;;16.55;;
40635;SDS011;26642;55.766;37.828;2022-08-27T12:35:14;18.90;;;16.98;;
40635;SDS011;26642;55.766;37.828;2022-08-27T12:37:49;22.20;;;16.65;;
40635;SDS011;26642;55.766;37.828;2022-08-27T12:43:12;22.90;;;17.17;;
40635;SDS011;26642;55.766;37.828;2022-08-27T12:45:47;19.63;;;16.25;;
40635;SDS011;26642;55.766;37.828;2022-08-27T12:48:22;19.20;;;15.93;;
40635;SDS011;26642;55.766;37.828;2022-08-27T12:50:54;20.30;;;16.38;;
40635;SDS011;26642;55.766;37.828;2022-08-27T12:53:33;17.88;;;15.98;;
40635;SDS011;26642;55.766;37.828;2022-08-27T13:01:57;17.42;;;15.20;;
40635;SDS011;26642;55.766;37.828;2022-08-27T13:04:49;16.30;;;14.50;;
40635;SDS011;26642;55.766;37.828;2022-08-27T13:07:27;17.95;;;15.80;;
40635;SDS011;26642;55.766;37.828;2022-08-27T13:09:55;17.45;;;15.07;;
40635;SDS011;26642;55.766;37.828;2022-08-27T13:12:38;19.17;;;15.02;;
40635;SDS011;26642;55.766;37.828;2022-08-27T13:15:07;19.42;;;15.13;;
40635;SDS011;26642;55.766;37.828;2022-08-27T13:17:35;17.55;;;14.40;;
40635;SDS011;26642;55.766;37.828;2022-08-27T13:20:10;22.77;;;14.75;;
40635;SDS011;26642;55.766;37.828;2022-08-27T13:22:40;18.83;;;14.77;;
40635;SDS011;26642;55.766;37.828;2022-08-27T13:25:30;19.45;;;14.02;;
40635;SDS011;26642;55.766;37.828;2022-08-27T13:27:59;17.40;;;14.95;;
40635;SDS011;26642;55.766;37.828;2022-08-27T13:30:36;18.40;;;15.13;;
40635;SDS011;26642;55.766;37.828;2022-08-27T13:33:04;15.75;;;14.07;;
40635;SDS011;26642;55.766;37.828;2022-08-27T13:35:32;18.60;;;15.20;;
40635;SDS011;26642;55.766;37.828;2022-08-27T13:38:00;17.90;;;15.20;;
40635;SDS011;26642;55.766;37.828;2022-08-27T13:40:29;17.60;;;15.15;;
40635;SDS011;26642;55.766;37.828;2022-08-27T13:43:04;19.98;;;15.50;;
40635;SDS011;26642;55.766;37.828;2022-08-27T13:45:33;17.65;;;15.70;;
40635;SDS011;26642;55.766;37.828;2022-08-27T13:48:00;18.88;;;16.88;;
40635;SDS011;26642;55.766;37.828;2022-08-27T13:50:30;22.73;;;18.45;;
40635;SDS011;26642;55.766;37.828;2022-08-27T13:55:50;26.30;;;20.05;;
40635;SDS011;26642;55.766;37.828;2022-08-27T13:58:19;28.88;;;21.05;;
40635;SDS011;26642;55.766;37.828;2022-08-27T14:00:50;23.30;;;17.88;;
40635;SDS011;26642;55.766;37.828;2022-08-27T14:05:59;31.92;;;21.67;;
40635;SDS011;26642;55.766;37.828;2022-08-27T14:08:28;23.92;;;20.08;;
40635;SDS011;26642;55.766;37.828;2022-08-27T14:10:58;27.55;;;21.55;;
40635;SDS011;26642;55.766;37.828;2022-08-27T14:13:39;24.77;;;19.98;;
40635;SDS011;26642;55.766;37.828;2022-08-27T14:16:14;29.17;;;22.23;;
40635;SDS011;26642;55.766;37.828;2022-08-27T14:19:26;26.67;;;21.17;;
40635;SDS011;26642;55.766;37.828;2022-08-27T14:21:52;28.30;;;21.65;;
40635;SDS011;26642;55.766;37.828;2022-08-27T14:24:19;26.42;;;21.40;;
40635;SDS011;26642;55.766;37.828;2022-08-27T14:26:49;25.13;;;22.02;;
40635;SDS011;26642;55.766;37.828;2022-08-27T14:29:16;31.13;;;21.70;;
40635;SDS011;26642;55.766;37.828;2022-08-27T14:31:43;25.52;;;20.98;;
40635;SDS011;26642;55.766;37.828;2022-08-27T14:34:09;30.35;;;23.80;;
40635;SDS011;26642;55.766;37.828;2022-08-27T14:36:36;32.33;;;24.25;;
40635;SDS011;26642;55.766;37.828;2022-08-27T14:39:05;28.42;;;23.10;;
40635;SDS011;26642;55.766;37.828;2022-08-27T14:41:32;30.88;;;25.52;;
40635;SDS011;26642;55.766;37.828;2022-08-27T14:43:58;29.77;;;23.33;;
40635;SDS011;26642;55.766;37.828;2022-08-27T14:46:25;32.95;;;24.88;;
40635;SDS011;26642;55.766;37.828;2022-08-27T14:48:54;30.27;;;23.60;;
40635;SDS011;26642;55.766;37.828;2022-08-27T14:51:26;29.00;;;24.02;;
40635;SDS011;26642;55.766;37.828;2022-08-27T14:53:54;28.38;;;22.70;;
40635;SDS011;26642;55.766;37.828;2022-08-27T14:56:21;36.60;;;26.95;;
40635;SDS011;26642;55.766;37.828;2022-08-27T14:58:48;33.97;;;25.05;;
40635;SDS011;26642;55.766;37.828;2022-08-27T15:01:14;30.58;;;24.73;;
40635;SDS011;26642;55.766;37.828;2022-08-27T15:03:43;34.30;;;26.38;;
40635;SDS011;26642;55.766;37.828;2022-08-27T15:06:12;40.00;;;30.15;;
40635;SDS011;26642;55.766;37.828;2022-08-27T15:08:39;31.67;;;26.10;;
40635;SDS011;26642;55.766;37.828;2022-08-27T15:11:05;37.65;;;26.67;;
40635;SDS011;26642;55.766;37.828;2022-08-27T15:13:36;36.70;;;27.27;;
40635;SDS011;26642;55.766;37.828;2022-08-27T15:16:02;46.97;;;29.80;;
40635;SDS011;26642;55.766;37.828;2022-08-27T15:18:28;39.35;;;28.88;;
40635;SDS011;26642;55.766;37.828;2022-08-27T15:20:54;42.40;;;30.95;;
40635;SDS011;26642;55.766;37.828;2022-08-27T15:23:20;44.78;;;29.63;;
40635;SDS011;26642;55.766;37.828;2022-08-27T15:25:46;36.50;;;28.30;;
40635;SDS011;26642;55.766;37.828;2022-08-27T15:28:14;40.88;;;29.80;;
40635;SDS011;26642;55.766;37.828;2022-08-27T15:30:40;43.13;;;31.45;;
40635;SDS011;26642;55.766;37.828;2022-08-27T15:33:06;44.72;;;32.22;;
40635;SDS011;26642;55.766;37.828;2022-08-27T15:35:32;40.63;;;30.70;;
40635;SDS011;26642;55.766;37.828;2022-08-27T15:37:58;46.30;;;32.50;;
40635;SDS011;26642;55.766;37.828;2022-08-27T15:40:25;51.25;;;33.85;;
40635;SDS011;26642;55.766;37.828;2022-08-27T15:42:57;48.00;;;33.92;;
40635;SDS011;26642;55.766;37.828;2022-08-27T15:45:26;47.30;;;33.83;;
40635;SDS011;26642;55.766;37.828;2022-08-27T15:47:53;48.78;;;34.40;;
40635;SDS011;26642;55.766;37.828;2022-08-27T15:50:20;50.50;;;34.55;;